Time;durP1;ratioP1;P1;durP2;ratioP2;P2;SDS_P1;SDS_P2;PMS_P1;PMS_P2;Temp;Humidity;BMP_temperature;BMP_pressure;BME280_temperature;BME280_humidity;BME280_pressure;Samples;Min_cycle;Max_cycle;Signal;HPM_P1;HPM_P2
2022/05/24 00:00:20;;;;;;;3.53;2.20;;;;;;;15.41;100.00;97661.78;4990936;28;20654;-49
2022/05/24 00:02:48;;;;;;;5.00;1.90;;;;;;;15.41;100.00;97665.25;4989452;28;20377;-49
2022/05/24 00:05:16;;;;;;;3.63;1.80;;;;;;;15.38;100.00;97659.56;4999319;28;20229;-49
2022/05/24 00:07:43;;;;;;;2.43;2.00;;;;;;;15.32;100.00;97656.78;4990544;28;20228;-49
2022/05/24 00:10:15;;;;;;;2.47;1.80;;;;;;;15.28;100.00;97660.00;5006377;28;20235;-49
2022/05/24 00:12:43;;;;;;;3.00;1.90;;;;;;;15.24;100.00;97654.38;5006273;28;20680;-51
2022/05/24 00:15:28;;;;;;;3.27;1.73;;;;;;;15.26;100.00;97646.25;5006472;28;20697;-49
2022/05/24 00:17:58;;;;;;;2.33;1.80;;;;;;;15.25;100.00;97647.28;5010532;28;20227;-49
2022/05/24 00:20:28;;;;;;;2.80;1.90;;;;;;;15.25;100.00;97644.66;5010307;28;20233;-49
2022/05/24 00:22:55;;;;;;;3.53;1.47;;;;;;;15.22;100.00;97639.78;5011069;28;20208;-49
2022/05/24 00:25:22;;;;;;;3.10;1.60;;;;;;;15.23;100.00;97634.34;5004733;28;20293;-50
2022/05/24 00:27:50;;;;;;;2.17;1.53;;;;;;;15.24;100.00;97630.72;5010209;28;20322;-49
2022/05/24 00:30:18;;;;;;;3.70;1.70;;;;;;;15.20;100.00;97630.28;5009812;28;20599;-49
2022/05/24 00:32:46;;;;;;;5.00;1.90;;;;;;;15.18;100.00;97623.63;4994854;28;20230;-49
2022/05/24 00:35:13;;;;;;;4.37;1.67;;;;;;;15.19;100.00;97620.00;4994483;28;20229;-49
2022/05/24 00:37:42;;;;;;;2.37;1.47;;;;;;;15.19;100.00;97620.00;4993729;28;20231;-49
2022/05/24 00:40:14;;;;;;;2.17;1.43;;;;;;;15.18;100.00;97623.63;5010684;28;20232;-49
2022/05/24 00:42:46;;;;;;;2.20;1.47;;;;;;;15.18;100.00;97616.53;5006274;28;20566;-49
2022/05/24 00:45:20;;;;;;;2.37;1.57;;;;;;;15.14;100.00;97620.59;4989057;28;20575;-49
2022/05/24 00:47:53;;;;;;;1.37;1.27;;;;;;;15.09;100.00;97612.50;4970542;28;20233;-49
2022/05/24 00:50:25;;;;;;;2.90;1.43;;;;;;;15.09;100.00;97614.34;4970001;28;20230;-49
2022/05/24 00:52:56;;;;;;;2.97;1.50;;;;;;;15.05;100.00;97614.75;4973401;28;20304;-50
2022/05/24 00:55:26;;;;;;;4.60;1.40;;;;;;;15.09;100.00;97606.47;4975652;28;20192;-50
2022/05/24 00:58:03;;;;;;;2.17;1.37;;;;;;;15.08;100.00;97608.28;4975483;28;20246;-49
2022/05/24 01:00:32;;;;;;;6.47;1.60;;;;;;;15.16;100.00;97610.69;4975832;28;20193;-49
2022/05/24 01:03:00;;;;;;;4.13;1.20;;;;;;;15.22;100.00;97614.31;4957626;28;20224;-49
2022/05/24 01:05:30;;;;;;;2.30;1.83;;;;;;;15.26;100.00;97601.56;4975323;28;20205;-49
2022/05/24 01:07:58;;;;;;;3.23;1.60;;;;;;;15.27;100.00;97596.13;4957694;28;20230;-49
2022/05/24 01:10:29;;;;;;;7.80;2.43;;;;;;;15.33;100.00;97587.41;4957941;28;20289;-49
2022/05/24 01:13:01;;;;;;;2.60;1.30;;;;;;;15.29;100.00;97580.94;4975188;28;20295;-53
2022/05/24 01:15:28;;;;;;;5.60;1.40;;;;;;;15.24;100.00;97579.94;4975398;28;20188;-51
2022/05/24 01:17:58;;;;;;;2.27;1.10;;;;;;;15.19;100.00;97589.25;4975434;28;20182;-50
2022/05/24 01:20:25;;;;;;;4.00;1.57;;;;;;;15.07;100.00;97580.38;4974820;28;20605;-49
2022/05/24 01:23:13;;;;;;;1.87;1.10;;;;;;;14.97;100.00;97583.44;4974905;28;20244;-49
2022/05/24 01:25:51;;;;;;;4.97;1.47;;;;;;;14.95;100.00;97582.00;4974855;28;20193;-49
2022/05/24 01:28:26;;;;;;;3.43;1.10;;;;;;;14.95;100.00;97580.22;4975024;28;20237;-49
2022/05/24 01:30:55;;;;;;;1.50;1.30;;;;;;;14.91;100.00;97582.41;4975178;28;20621;-49
2022/05/24 01:36:12;;;;;;;2.97;1.33;;;;;;;14.94;100.00;97586.47;4975049;28;20206;-50
2022/05/24 01:38:45;;;;;;;1.60;1.40;;;;;;;14.98;100.00;97576.34;4974936;28;20248;-51
2022/05/24 01:41:17;;;;;;;5.50;1.63;;;;;;;15.00;100.00;97584.84;4974604;28;20569;-50
2022/05/24 01:43:48;;;;;;;3.30;1.20;;;;;;;15.03;100.00;97587.06;4957184;28;20259;-51
2022/05/24 01:46:20;;;;;;;1.37;1.27;;;;;;;15.02;100.00;97577.56;4974787;28;20201;-50
2022/05/24 01:48:52;;;;;;;2.27;1.40;;;;;;;15.04;100.00;97578.97;4957173;28;20306;-50
2022/05/24 01:51:23;;;;;;;4.73;1.67;;;;;;;15.04;100.00;97581.59;4974433;28;20192;-50
2022/05/24 01:53:55;;;;;;;1.10;1.00;;;;;;;15.04;100.00;97586.88;4974751;28;20275;-49
2022/05/24 01:56:28;;;;;;;2.80;1.17;;;;;;;14.87;100.00;97583.84;4974319;28;20193;-49
2022/05/24 01:59:01;;;;;;;1.27;1.00;;;;;;;14.88;100.00;97595.16;4974262;28;20287;-50
2022/05/24 02:01:37;;;;;;;5.03;1.33;;;;;;;14.76;100.00;97584.50;4956480;28;20213;-50
2022/05/24 02:04:06;;;;;;;1.67;1.10;;;;;;;14.72;99.35;97588.53;4973620;28;20195;-51
2022/05/24 02:06:33;;;;;;;3.73;1.07;;;;;;;14.63;99.82;97584.47;4974417;28;20204;-51
2022/05/24 02:09:00;;;;;;;3.87;1.10;;;;;;;14.53;100.00;97582.22;4974563;28;20262;-53
2022/05/24 02:11:30;;;;;;;1.67;1.03;;;;;;;14.47;100.00;97587.28;4973697;28;20211;-51
2022/05/24 02:14:05;;;;;;;1.40;1.00;;;;;;;14.38;100.00;97582.44;4973995;28;20186;-52
2022/05/24 02:16:35;;;;;;;1.50;1.23;;;;;;;14.27;100.00;97571.50;4974229;28;20202;-50
2022/05/24 02:19:08;;;;;;;3.47;1.30;;;;;;;14.17;100.00;97576.34;4972799;28;20224;-50
2022/05/24 02:21:39;;;;;;;2.10;1.20;;;;;;;14.08;100.00;97569.66;4992044;28;20690;-50
2022/05/24 02:24:16;;;;;;;1.27;1.00;;;;;;;14.00;100.00;97584.59;4992546;28;20212;-50
2022/05/24 02:26:44;;;;;;;3.73;0.93;;;;;;;14.04;99.64;97574.53;4992371;28;20190;-50
2022/05/24 02:29:12;;;;;;;2.30;1.17;;;;;;;14.02;100.00;97574.69;4992582;28;20215;-50
2022/05/24 02:31:40;;;;;;;3.27;1.10;;;;;;;14.00;100.00;97566.22;4991899;28;20212;-50
2022/05/24 02:34:07;;;;;;;3.20;1.10;;;;;;;13.94;100.00;97564.38;4992340;28;20589;-50
2022/05/24 02:36:35;;;;;;;5.47;1.90;;;;;;;13.95;100.00;97570.47;4974518;28;20253;-51
2022/05/24 02:39:04;;;;;;;6.27;1.20;;;;;;;13.96;100.00;97572.88;4992141;28;20191;-50
2022/05/24 02:41:33;;;;;;;1.37;1.07;;;;;;;13.98;100.00;97573.47;4987737;28;20241;-51
2022/05/24 02:44:03;;;;;;;3.47;1.10;;;;;;;13.98;100.00;97563.00;4993139;28;20203;-50
2022/05/24 02:46:33;;;;;;;4.77;1.13;;;;;;;14.07;100.00;97554.94;4993250;28;20261;-50
2022/05/24 02:49:01;;;;;;;1.27;0.90;;;;;;;14.14;96.69;97567.06;4992857;28;20234;-51
2022/05/24 02:51:28;;;;;;;3.30;1.00;;;;;;;14.21;100.00;97566.28;4992367;28;20207;-50
2022/05/24 02:53:56;;;;;;;5.93;1.33;;;;;;;14.23;100.00;97566.88;4992907;28;20666;-50
2022/05/24 02:56:24;;;;;;;2.50;1.00;;;;;;;14.20;100.00;97568.06;4988374;28;20196;-51
2022/05/24 02:58:51;;;;;;;3.63;1.13;;;;;;;14.24;100.00;97568.50;4992480;28;20200;-50
2022/05/24 03:01:21;;;;;;;1.50;0.90;;;;;;;14.15;100.00;97560.00;4992354;28;20650;-50
2022/05/24 03:03:52;;;;;;;2.87;0.90;;;;;;;14.16;100.00;97559.81;4993077;28;20224;-50
2022/05/24 03:06:21;;;;;;;1.30;1.00;;;;;;;14.13;99.90;97554.97;4992338;28;20204;-51
2022/05/24 03:14:14;;;;;;;1.93;0.80;;;;;;;14.14;98.75;97561.00;4939044;28;20227;-50
2022/05/24 03:14:18;;;;;;;4.97;1.00;;;;;;;14.20;95.66;97551.53;4991920;28;20248;-50
2022/05/24 03:16:47;;;;;;;2.90;1.00;;;;;;;14.21;97.60;97555.78;4992572;28;20286;-50
2022/05/24 03:19:16;;;;;;;3.90;1.20;;;;;;;14.23;100.00;97556.38;4992576;28;20220;-51
2022/05/24 03:21:44;;;;;;;3.83;1.13;;;;;;;14.19;100.00;97550.72;4967511;28;20306;-50
2022/05/24 03:24:12;;;;;;;5.23;1.00;;;;;;;14.22;100.00;97549.50;4992030;28;20218;-50
2022/05/24 03:26:39;;;;;;;3.27;1.03;;;;;;;14.22;100.00;97550.31;4992174;28;20188;-50
2022/05/24 03:29:07;;;;;;;7.57;1.93;;;;;;;14.24;100.00;97556.16;4984049;28;20258;-52
2022/05/24 03:31:35;;;;;;;2.27;1.10;;;;;;;14.21;100.00;97559.19;4991888;28;20742;-50
2022/05/24 03:34:05;;;;;;;2.27;1.10;;;;;;;14.21;100.00;97561.03;4992006;28;20556;-51
2022/05/24 03:36:33;;;;;;;1.30;1.03;;;;;;;14.18;100.00;97551.72;4992213;28;20200;-50
2022/05/24 03:39:00;;;;;;;3.03;1.30;;;;;;;14.20;100.00;97559.41;4992779;28;20606;-50
2022/05/24 03:41:27;;;;;;;2.70;1.13;;;;;;;14.17;100.00;97566.66;4991514;28;20231;-51
2022/05/24 03:43:55;;;;;;;4.13;1.30;;;;;;;14.15;100.00;97558.19;4991879;28;20678;-51
2022/05/24 03:46:23;;;;;;;4.37;1.30;;;;;;;14.11;100.00;97553.53;4991683;28;20561;-52
2022/05/24 03:48:50;;;;;;;5.87;1.47;;;;;;;14.13;100.00;97554.97;4992013;28;20599;-50
2022/05/24 03:51:17;;;;;;;4.30;1.20;;;;;;;14.12;100.00;97561.22;4991556;28;20214;-51
2022/05/24 03:53:46;;;;;;;5.73;1.23;;;;;;;14.06;100.00;97556.75;4974395;28;20285;-52
2022/05/24 03:56:13;;;;;;;5.47;1.43;;;;;;;14.08;100.00;97567.88;4991981;28;20196;-50
2022/05/24 03:58:40;;;;;;;4.50;1.37;;;;;;;14.12;100.00;97571.72;4984127;28;20186;-50
2022/05/24 04:01:10;;;;;;;5.23;1.53;;;;;;;14.12;100.00;97574.34;4991317;28;20717;-50
2022/05/24 04:03:38;;;;;;;2.33;1.90;;;;;;;14.16;100.00;97583.44;4991615;28;20191;-50
2022/05/24 04:06:05;;;;;;;3.93;1.70;;;;;;;14.23;100.00;97583.41;4991462;28;20214;-53
2022/05/24 04:08:33;;;;;;;2.83;1.70;;;;;;;14.24;100.00;97582.41;4991860;28;20307;-52
2022/05/24 04:11:04;;;;;;;1.97;1.60;;;;;;;14.34;100.00;97592.50;4991972;28;20597;-53
2022/05/24 04:13:32;;;;;;;4.43;1.93;;;;;;;14.44;100.00;97585.03;4991712;28;20195;-53
2022/05/24 04:15:59;;;;;;;7.17;2.20;;;;;;;14.51;100.00;97579.81;4992179;28;20662;-50
2022/05/24 04:18:26;;;;;;;5.57;1.77;;;;;;;14.65;100.00;97582.44;4991493;28;20211;-51
2022/05/24 04:20:54;;;;;;;3.10;1.70;;;;;;;14.66;100.00;97576.97;4991599;28;20188;-50
2022/05/24 04:23:24;;;;;;;3.83;2.33;;;;;;;14.67;100.00;97578.59;4991363;28;20316;-50
2022/05/24 04:25:53;;;;;;;5.43;1.70;;;;;;;14.72;100.00;97585.91;4984271;28;20541;-50
2022/05/24 04:28:23;;;;;;;6.13;1.70;;;;;;;14.72;100.00;97586.69;4969905;28;20220;-51
2022/05/24 04:30:52;;;;;;;4.93;1.90;;;;;;;14.81;99.12;97597.81;4990616;28;20192;-50
2022/05/24 04:33:19;;;;;;;2.43;1.80;;;;;;;14.88;100.00;97603.84;4991873;28;20225;-50
2022/05/24 04:35:46;;;;;;;4.93;1.93;;;;;;;15.02;100.00;97611.72;4988540;28;20614;-51
2022/05/24 04:38:13;;;;;;;3.83;1.80;;;;;;;15.17;98.30;97614.13;4995081;28;20194;-50
2022/05/24 04:43:27;;;;;;;4.03;1.73;;;;;;;15.47;94.06;97626.78;4994707;28;20286;-50
2022/05/24 04:45:55;;;;;;;6.10;1.70;;;;;;;15.47;93.63;97627.59;4995182;28;20354;-51
2022/05/24 04:48:26;;;;;;;3.37;1.70;;;;;;;15.53;93.13;97627.78;4995451;28;20682;-50
2022/05/24 04:50:54;;;;;;;2.97;1.40;;;;;;;15.54;93.06;97637.28;4995615;28;20660;-50
2022/05/24 04:53:21;;;;;;;2.23;1.40;;;;;;;15.52;93.17;97626.97;4994561;28;20222;-51
2022/05/24 04:55:49;;;;;;;4.60;1.30;;;;;;;15.55;91.32;97634.44;4993204;28;20194;-50
2022/05/24 04:58:16;;;;;;;3.03;1.30;;;;;;;15.52;92.39;97647.22;4992936;28;20220;-50
2022/05/24 05:00:46;;;;;;;4.70;1.27;;;;;;;15.45;92.67;97636.69;4994828;28;20191;-52
2022/05/24 05:03:17;;;;;;;4.80;1.40;;;;;;;15.40;91.84;97632.06;4994462;28;20216;-52
2022/05/24 05:05:45;;;;;;;5.50;1.60;;;;;;;15.36;91.29;97625.59;4987516;28;20218;-50
2022/05/24 05:08:14;;;;;;;4.33;1.80;;;;;;;15.34;89.80;97633.72;4977649;28;20215;-50
2022/05/24 05:10:41;;;;;;;1.50;1.40;;;;;;;15.34;90.59;97646.03;4986835;28;20384;-51
2022/05/24 05:13:16;;;;;;;4.37;1.20;;;;;;;15.30;90.01;97644.84;4994515;28;20209;-50
2022/05/24 05:15:44;;;;;;;5.07;2.00;;;;;;;15.29;91.72;97645.84;4986861;28;20616;-50
2022/05/24 05:18:14;;;;;;;2.50;1.60;;;;;;;15.24;90.39;97637.78;4994570;28;20184;-50
2022/05/24 05:20:42;;;;;;;4.47;1.47;;;;;;;15.23;91.84;97636.97;4986718;28;20200;-50
2022/05/24 05:23:11;;;;;;;4.87;1.30;;;;;;;15.25;90.59;97642.00;4986224;28;20688;-51
2022/05/24 05:25:39;;;;;;;4.10;1.55;;;;;;;15.22;90.63;97656.38;4985454;28;21020;-50
2022/05/24 05:28:06;;;;;;;1.87;1.30;;;;;;;15.27;88.94;97668.91;4987334;28;20237;-50
2022/05/24 05:33:20;;;;;;;4.93;2.40;;;;;;;15.20;95.65;97685.50;4993659;28;20717;-50
2022/05/24 05:35:50;;;;;;;4.97;2.90;;;;;;;15.07;99.11;97703.09;4994336;28;20288;-50
2022/05/24 05:38:17;;;;;;;3.53;2.60;;;;;;;15.05;99.95;97724.31;4993877;28;20206;-49
2022/05/24 05:40:44;;;;;;;7.37;2.80;;;;;;;14.93;100.00;97724.13;4986152;28;20275;-51
2022/05/24 05:43:12;;;;;;;5.60;2.87;;;;;;;14.84;100.00;97720.88;4986396;28;20275;-49
2022/05/24 05:45:39;;;;;;;6.17;2.60;;;;;;;14.76;100.00;97724.50;4994086;28;20191;-51
2022/05/24 05:48:07;;;;;;;7.03;2.80;;;;;;;14.77;99.95;97717.44;4993617;28;20234;-49
2022/05/24 05:50:36;;;;;;;3.57;2.40;;;;;;;14.80;100.00;97729.34;4993880;28;20210;-50
2022/05/24 05:53:04;;;;;;;4.50;2.40;;;;;;;14.80;99.95;97738.06;4993530;28;20692;-49
2022/05/24 05:55:31;;;;;;;5.03;2.30;;;;;;;14.74;100.00;97762.50;4993919;28;20263;-50
2022/05/24 05:57:58;;;;;;;4.63;2.07;;;;;;;14.52;100.00;97807.25;4988008;28;20204;-50
2022/05/24 06:00:26;;;;;;;1.23;0.97;;;;;;;13.98;98.01;97833.22;4990094;28;20201;-50
2022/05/24 06:02:53;;;;;;;0.87;0.57;;;;;;;13.74;96.73;97842.34;4987629;28;20217;-50
2022/05/24 06:05:20;;;;;;;1.10;0.70;;;;;;;13.53;96.33;97844.00;4985288;28;20197;-50
2022/05/24 06:07:49;;;;;;;0.80;0.40;;;;;;;13.37;96.77;97855.53;4993388;28;20333;-50
2022/05/24 06:10:16;;;;;;;3.73;0.50;;;;;;;13.20;94.58;97865.47;4993449;28;20220;-50
2022/05/24 06:12:43;;;;;;;2.13;0.60;;;;;;;13.13;93.68;97869.84;4992862;28;20268;-50
2022/05/24 06:15:11;;;;;;;1.43;0.50;;;;;;;13.12;94.86;97879.47;4993397;28;20195;-50
2022/05/24 06:17:44;;;;;;;2.17;0.60;;;;;;;13.02;91.80;97888.66;4993427;28;20277;-50
2022/05/24 06:20:15;;;;;;;3.53;0.53;;;;;;;13.26;94.78;97893.53;4993822;28;20202;-50
2022/05/24 06:22:43;;;;;;;1.20;0.50;;;;;;;13.36;93.12;97890.63;4985075;28;20207;-49
2022/05/24 06:25:12;;;;;;;1.80;0.40;;;;;;;13.42;93.87;97891.69;4992870;28;20579;-50
2022/05/24 06:27:41;;;;;;;2.00;0.40;;;;;;;13.46;88.83;97873.78;4992968;28;20642;-50
2022/05/24 06:30:09;;;;;;;1.03;0.70;;;;;;;13.59;91.89;97894.91;4992960;28;20215;-50
2022/05/24 06:32:36;;;;;;;2.23;0.43;;;;;;;13.69;96.07;97910.28;4992586;28;20210;-50
2022/05/24 06:35:06;;;;;;;2.23;0.80;;;;;;;13.68;93.86;97913.91;4993384;28;20709;-50
2022/05/24 06:37:33;;;;;;;1.20;0.50;;;;;;;13.70;95.42;97930.28;4993359;28;20188;-51
2022/05/24 06:40:00;;;;;;;2.50;0.60;;;;;;;13.69;94.24;97929.47;4992834;28;20248;-50
2022/05/24 06:42:29;;;;;;;2.40;0.50;;;;;;;13.66;93.46;97929.84;4992478;28;20262;-49
2022/05/24 06:44:57;;;;;;;3.53;0.60;;;;;;;13.74;95.47;97913.16;4975465;28;20592;-50
2022/05/24 06:47:24;;;;;;;0.57;0.40;;;;;;;13.79;94.80;97920.44;4993037;28;20191;-50
2022/05/24 06:49:51;;;;;;;1.87;0.50;;;;;;;13.71;96.75;97929.28;4992229;28;20212;-50
2022/05/24 06:52:20;;;;;;;1.87;0.57;;;;;;;13.75;97.38;97935.78;4992696;28;20206;-50
2022/05/24 06:54:48;;;;;;;2.03;0.50;;;;;;;13.81;99.67;97948.13;4992843;28;20542;-50
2022/05/24 06:57:15;;;;;;;3.57;0.50;;;;;;;13.91;96.46;97947.00;4990428;28;20665;-50
2022/05/24 07:02:48;;;;;;;3.43;0.40;;;;;;;14.07;89.60;97959.03;4985313;28;20587;-50
2022/05/24 07:05:21;;;;;;;4.47;0.50;;;;;;;14.31;89.42;97966.50;4984165;28;20211;-50
2022/05/24 07:07:48;;;;;;;2.97;0.73;;;;;;;14.36;90.17;97970.34;4992483;28;20563;-50
2022/05/24 07:10:21;;;;;;;2.23;0.57;;;;;;;14.52;88.80;97987.63;4992496;28;20251;-50
2022/05/24 07:12:58;;;;;;;0.97;0.50;;;;;;;14.80;87.51;97979.75;4992168;28;20214;-50
2022/05/24 07:15:27;;;;;;;2.23;0.40;;;;;;;14.91;80.74;97981.81;4992688;28;20577;-50
2022/05/24 07:17:55;;;;;;;0.90;0.40;;;;;;;14.91;84.56;97979.19;4992596;28;20200;-50
2022/05/24 07:20:22;;;;;;;2.07;0.50;;;;;;;15.26;83.38;97983.59;4992312;28;20224;-50
2022/05/24 07:22:49;;;;;;;1.00;0.40;;;;;;;15.64;77.99;97993.59;4992001;28;20204;-50
2022/05/24 07:25:18;;;;;;;0.60;0.40;;;;;;;16.14;78.74;97986.41;4992156;28;20204;-50
2022/05/24 07:27:45;;;;;;;1.87;1.00;;;;;;;16.43;82.38;97987.78;4975069;28;20201;-50
2022/05/24 07:30:13;;;;;;;0.90;0.30;;;;;;;16.64;75.17;97983.31;4992470;28;20213;-50
2022/05/24 07:32:43;;;;;;;2.43;0.50;;;;;;;16.61;76.80;97984.53;4984339;28;20210;-50
2022/05/24 07:35:11;;;;;;;1.73;0.50;;;;;;;16.37;77.31;97986.78;4991896;28;20185;-50
2022/05/24 07:37:39;;;;;;;2.40;0.40;;;;;;;16.07;75.88;97992.47;4992385;28;20198;-50
2022/05/24 07:45:51;;;;;;;1.40;0.43;;;;;;;15.82;78.64;97983.53;4992346;28;20207;-50
2022/05/24 07:48:20;;;;;;;1.03;0.40;;;;;;;15.81;81.70;97977.44;4992313;28;20185;-50
2022/05/24 07:50:48;;;;;;;0.30;0.30;;;;;;;15.85;77.58;97983.13;4992153;28;20685;-50
2022/05/24 07:53:16;;;;;;;1.07;0.60;;;;;;;15.66;77.05;97977.63;4991436;28;20216;-50
2022/05/24 07:55:44;;;;;;;3.87;0.60;;;;;;;15.64;81.89;97984.91;4991982;28;20272;-50
2022/05/24 07:58:11;;;;;;;2.20;0.40;;;;;;;15.71;81.28;97969.94;4992069;28;20195;-50
2022/05/24 08:00:39;;;;;;;4.67;0.50;;;;;;;15.87;78.48;97979.31;4993825;28;20185;-49
2022/05/24 08:03:07;;;;;;;1.53;0.30;;;;;;;15.88;76.01;97977.50;4978429;28;20283;-50
2022/05/24 08:05:37;;;;;;;0.23;0.23;;;;;;;16.03;78.08;97985.19;4995888;28;20228;-50
2022/05/24 08:08:06;;;;;;;4.60;0.40;;;;;;;16.49;77.71;97989.59;4996385;28;20219;-50
2022/05/24 08:10:35;;;;;;;1.93;0.30;;;;;;;16.85;76.36;97990.16;4996241;28;20331;-50
2022/05/24 08:13:05;;;;;;;0.30;0.20;;;;;;;16.89;73.48;97990.53;4977831;28;20225;-50
2022/05/24 08:15:32;;;;;;;0.50;0.40;;;;;;;16.91;71.54;97994.63;4996094;28;20277;-50
2022/05/24 08:17:59;;;;;;;0.63;0.40;;;;;;;16.67;71.76;97994.25;4995731;28;20181;-50
2022/05/24 08:20:27;;;;;;;0.80;0.40;;;;;;;16.47;72.19;97990.84;4996182;28;20185;-49
2022/05/24 08:22:56;;;;;;;2.40;0.40;;;;;;;16.32;73.25;97989.22;4995684;28;20247;-50
2022/05/24 08:25:25;;;;;;;0.60;0.20;;;;;;;16.05;77.76;98001.59;4996150;28;20202;-51
2022/05/24 08:27:53;;;;;;;1.97;0.60;;;;;;;15.92;76.96;97997.94;4995314;28;20189;-50
2022/05/24 08:30:20;;;;;;;3.40;0.50;;;;;;;15.86;77.48;98003.97;4995140;28;20208;-50
2022/05/24 08:32:48;;;;;;;1.20;0.50;;;;;;;16.15;74.92;98007.28;4995131;28;20219;-49
2022/05/24 08:35:18;;;;;;;2.23;0.40;;;;;;;16.18;74.19;98003.41;4995392;28;20221;-51
2022/05/24 08:37:45;;;;;;;1.23;0.40;;;;;;;16.19;72.89;98013.75;4995395;28;20553;-49
2022/05/24 08:40:17;;;;;;;1.67;0.50;;;;;;;16.37;73.83;98015.75;4995681;28;20197;-50
2022/05/24 08:42:59;;;;;;;0.90;0.30;;;;;;;16.83;74.14;98008.00;4995495;28;20237;-50
2022/05/24 08:48:26;;;;;;;1.87;0.50;;;;;;;17.41;71.60;98014.31;4994385;28;20669;-50
2022/05/24 08:50:59;;;;;;;1.00;0.60;;;;;;;17.60;68.01;98006.50;4994924;28;20212;-50
2022/05/24 08:53:33;;;;;;;2.53;0.53;;;;;;;17.79;69.55;98018.78;4994393;28;20222;-50
2022/05/24 08:56:06;;;;;;;1.53;0.50;;;;;;;17.98;63.45;97998.53;4995172;28;20204;-50
2022/05/24 08:58:38;;;;;;;2.63;0.63;;;;;;;17.90;67.40;98003.28;4995044;28;20202;-50
2022/05/24 09:01:10;;;;;;;1.93;0.40;;;;;;;18.12;65.39;98001.13;4995164;28;20242;-50
2022/05/24 09:03:38;;;;;;;2.10;0.50;;;;;;;18.06;67.26;97996.69;4994544;28;20187;-50
2022/05/24 09:06:11;;;;;;;2.00;0.50;;;;;;;18.12;68.43;97993.19;4977108;28;20243;-49
2022/05/24 09:08:47;;;;;;;1.27;0.40;;;;;;;18.07;67.01;97987.75;4992173;28;20202;-50
2022/05/24 09:11:26;;;;;;;0.57;0.40;;;;;;;18.53;63.29;97983.91;4988086;28;20219;-50
2022/05/24 09:14:08;;;;;;;0.67;0.50;;;;;;;18.36;62.70;97977.56;4988126;28;20587;-49
2022/05/24 09:16:42;;;;;;;1.50;0.47;;;;;;;18.55;59.47;97978.38;4988885;28;20677;-49
2022/05/24 09:19:17;;;;;;;2.70;0.37;;;;;;;18.14;60.33;97984.03;4989728;28;20198;-49
2022/05/24 09:21:47;;;;;;;1.50;0.60;;;;;;;17.69;63.08;97992.84;4989470;28;20216;-49
2022/05/24 09:24:23;;;;;;;1.03;0.60;;;;;;;17.02;68.38;98002.91;4987675;28;20194;-50
2022/05/24 09:27:14;;;;;;;1.53;0.70;;;;;;;16.49;67.34;98000.16;4989551;28;20190;-50
2022/05/24 09:30:02;;;;;;;2.60;0.60;;;;;;;16.42;68.14;98012.53;4989404;28;20208;-50
2022/05/24 09:32:36;;;;;;;0.67;0.50;;;;;;;16.47;67.71;98004.81;4989084;28;20226;-50
2022/05/24 09:35:11;;;;;;;2.47;0.50;;;;;;;16.83;66.38;98015.91;4986640;28;20194;-49
2022/05/24 09:37:41;;;;;;;2.73;0.60;;;;;;;17.26;65.29;98004.84;4989091;28;20210;-50
2022/05/24 09:40:18;;;;;;;0.80;0.77;;;;;;;18.19;61.23;98003.69;4986551;28;20283;-49
2022/05/24 09:42:47;;;;;;;1.50;0.40;;;;;;;18.64;61.00;98018.53;4989376;28;20210;-50
2022/05/24 09:45:16;;;;;;;1.23;0.50;;;;;;;19.06;54.87;98023.25;4982895;28;20192;-49
2022/05/24 09:47:55;;;;;;;0.57;0.40;;;;;;;18.81;55.06;98011.66;4992235;28;20195;-50
2022/05/24 09:50:25;;;;;;;1.50;0.60;;;;;;;18.13;56.94;98005.38;4989335;28;20305;-49
2022/05/24 09:53:13;;;;;;;2.03;0.60;;;;;;;18.05;59.18;98006.44;4990300;28;20265;-49
2022/05/24 09:55:45;;;;;;;1.60;0.50;;;;;;;17.67;59.47;98013.34;4989547;28;20203;-49
2022/05/24 09:58:26;;;;;;;1.97;0.80;;;;;;;17.52;60.50;98020.75;4989042;28;20278;-49
2022/05/24 10:00:56;;;;;;;3.63;0.53;;;;;;;17.32;63.62;98011.13;4989190;28;20598;-49
2022/05/24 10:03:29;;;;;;;2.10;0.60;;;;;;;17.84;62.71;98013.69;4968608;28;20223;-49
2022/05/24 10:06:13;;;;;;;0.83;0.50;;;;;;;18.49;59.02;98040.03;4987299;28;20203;-49
2022/05/24 10:08:44;;;;;;;1.70;0.50;;;;;;;18.11;59.57;98026.72;4987846;28;20209;-49
2022/05/24 10:11:26;;;;;;;0.47;0.30;;;;;;;18.03;61.67;98024.31;4994430;28;20269;-49
2022/05/24 10:14:14;;;;;;;0.97;0.67;;;;;;;17.96;59.89;98019.06;4987969;28;20641;-49
2022/05/24 10:16:46;;;;;;;0.50;0.50;;;;;;;18.07;62.46;98025.53;4984998;28;20211;-49
2022/05/24 10:19:35;;;;;;;0.93;0.50;;;;;;;18.13;62.15;98027.31;4994493;28;20274;-49
2022/05/24 10:22:12;;;;;;;0.87;0.47;;;;;;;18.47;55.45;98029.69;4994093;28;20216;-50
2022/05/24 10:25:09;;;;;;;1.47;0.60;;;;;;;18.79;59.95;98029.59;4993261;28;20195;-49
2022/05/24 10:27:46;;;;;;;1.17;0.60;;;;;;;18.77;58.88;98033.50;4994052;28;20200;-49
2022/05/24 10:30:20;;;;;;;1.77;0.33;;;;;;;18.68;57.40;98033.78;4994399;28;20251;-51
2022/05/24 10:38:52;;;;;;;1.20;0.60;;;;;;;19.07;54.17;98028.31;4993991;28;20584;-50
2022/05/24 10:41:25;;;;;;;1.37;0.50;;;;;;;18.74;52.86;98034.72;4993230;28;20191;-52
2022/05/24 10:44:01;;;;;;;1.10;0.40;;;;;;;18.51;54.73;98038.81;4984738;28;20279;-50
2022/05/24 10:46:38;;;;;;;0.53;0.40;;;;;;;18.71;54.03;98030.69;4993652;28;20198;-50
2022/05/24 10:49:14;;;;;;;1.00;0.50;;;;;;;18.86;50.28;98014.47;4992515;28;20213;-50
2022/05/24 10:51:48;;;;;;;1.83;0.67;;;;;;;19.33;54.00;98021.09;4987419;28;20222;-50
2022/05/24 10:54:26;;;;;;;1.53;0.40;;;;;;;19.46;50.49;98010.34;4994027;28;20658;-53
2022/05/24 10:56:55;;;;;;;0.70;0.30;;;;;;;19.94;52.52;98022.97;4986851;28;20558;-50
2022/05/24 10:59:35;;;;;;;0.60;0.40;;;;;;;19.85;51.00;98015.31;4993154;28;20183;-50
2022/05/24 11:02:13;;;;;;;2.40;0.47;;;;;;;19.97;50.63;98011.91;4992900;28;20700;-50
2022/05/24 11:04:46;;;;;;;3.17;0.40;;;;;;;20.47;48.47;98019.44;4992935;28;20556;-50
2022/05/24 11:07:18;;;;;;;1.13;0.50;;;;;;;19.39;49.71;98022.03;4985530;28;20208;-50
2022/05/24 11:09:54;;;;;;;2.43;0.40;;;;;;;19.60;48.09;98015.47;4985989;28;20198;-50
2022/05/24 11:12:26;;;;;;;2.07;0.53;;;;;;;18.82;50.95;98004.56;4993302;28;20253;-52
2022/05/24 11:14:57;;;;;;;1.57;0.47;;;;;;;19.00;52.46;98009.88;4994022;28;20187;-52
2022/05/24 11:17:26;;;;;;;3.57;0.40;;;;;;;18.90;48.88;98009.56;4975835;28;20211;-50
2022/05/24 11:19:55;;;;;;;0.63;0.40;;;;;;;18.89;50.27;97994.72;4993381;28;20738;-49
2022/05/24 11:22:29;;;;;;;0.80;0.40;;;;;;;18.82;51.48;97997.41;4975346;28;20216;-50
2022/05/24 11:25:05;;;;;;;1.30;0.80;;;;;;;18.85;50.92;98010.19;4993310;28;20665;-50
2022/05/24 11:27:35;;;;;;;5.43;1.20;;;;;;;18.91;51.99;98011.19;4993122;28;20201;-50
2022/05/24 11:30:10;;;;;;;0.60;0.40;;;;;;;19.31;51.47;98017.88;4993078;28;20185;-50
2022/05/24 11:32:43;;;;;;;1.87;0.70;;;;;;;19.61;50.39;98004.63;4987942;28;20269;-50
2022/05/24 11:35:23;;;;;;;1.57;0.57;;;;;;;20.29;52.46;98009.78;4993072;28;20198;-50
2022/05/24 11:37:55;;;;;;;2.00;0.57;;;;;;;19.91;48.23;98009.13;4986428;28;20186;-50
2022/05/24 11:40:34;;;;;;;3.67;0.60;;;;;;;19.30;49.06;98006.47;4993364;28;20287;-50
2022/05/24 11:43:03;;;;;;;1.37;0.60;;;;;;;19.54;50.23;98013.72;4992968;28;20703;-50
2022/05/24 11:46:05;;;;;;;2.17;0.60;;;;;;;19.28;49.67;98021.75;4993346;28;20202;-51
2022/05/24 11:48:56;;;;;;;2.27;0.60;;;;;;;19.44;49.02;98014.22;4993328;28;20197;-51
2022/05/24 11:51:36;;;;;;;1.43;0.60;;;;;;;19.09;51.38;98009.56;4986509;28;20226;-52
2022/05/24 11:54:06;;;;;;;3.27;0.80;;;;;;;18.69;50.37;98001.03;4993278;28;20294;-51
2022/05/24 11:56:33;;;;;;;2.73;0.50;;;;;;;18.59;51.22;98013.94;4993111;28;20192;-50
2022/05/24 11:59:04;;;;;;;1.20;0.63;;;;;;;18.15;52.12;98016.53;4993067;28;20201;-50
2022/05/24 12:01:50;;;;;;;3.40;0.60;;;;;;;18.21;53.77;98006.94;4993436;28;20216;-50
2022/05/24 12:10:46;;;;;;;5.27;0.67;;;;;;;18.99;51.31;98024.13;4992568;28;20197;-50
2022/05/24 12:13:33;;;;;;;2.13;0.60;;;;;;;19.52;49.13;98018.44;4992989;28;20207;-50
2022/05/24 12:16:04;;;;;;;2.67;0.67;;;;;;;19.44;50.02;98032.75;4975720;28;20244;-50
2022/05/24 12:18:57;;;;;;;1.03;0.70;;;;;;;19.40;50.12;98029.75;4991675;28;20613;-51
2022/05/24 12:22:06;;;;;;;1.77;0.67;;;;;;;19.23;49.91;98032.19;4990221;28;20194;-50